Time;durP1;ratioP1;P1;durP2;ratioP2;P2;SDS_P1;SDS_P2;PMS_P1;PMS_P2;Temp;Humidity;BMP_temperature;BMP_pressure;BME280_temperature;BME280_humidity;BME280_pressure;Samples;Min_cycle;Max_cycle;Signal;HPM_P1;HPM_P2
2021/12/13 00:00:55;;;;;;;72.97;50.95;;;18.40;61.50;;;;;;4942083;28;90523;-73
2021/12/13 00:03:28;;;;;;;72.85;51.38;;;18.40;61.60;;;;;;4946064;28;89646;-73
2021/12/13 00:06:12;;;;;;;74.03;51.10;;;18.40;61.70;;;;;;4948948;28;95877;-73
2021/12/13 00:08:42;;;;;;;71.97;50.42;;;18.40;61.70;;;;;;4944646;28;91144;-73
2021/12/13 00:11:16;;;;;;;72.50;50.92;;;18.40;61.70;;;;;;4945306;28;92249;-74
2021/12/13 00:13:46;;;;;;;72.13;50.72;;;18.30;61.70;;;;;;4945400;28;91424;-74
2021/12/13 00:16:14;;;;;;;73.22;51.35;;;18.30;61.80;;;;;;4942513;28;92011;-74
2021/12/13 00:18:46;;;;;;;72.75;50.58;;;18.30;61.80;;;;;;4934090;28;92149;-74
2021/12/13 00:21:16;;;;;;;71.50;50.38;;;18.30;61.70;;;;;;4940699;28;92707;-75
2021/12/13 00:23:55;;;;;;;73.60;52.10;;;18.30;61.70;;;;;;4944027;28;89743;-73
2021/12/13 00:26:26;;;;;;;72.70;51.00;;;18.30;61.80;;;;;;4944945;28;90390;-73
2021/12/13 00:28:52;;;;;;;72.43;50.92;;;18.30;61.70;;;;;;4945763;28;92197;-74
2021/12/13 00:31:28;;;;;;;72.95;50.83;;;18.30;61.90;;;;;;4945464;28;91867;-74
2021/12/13 00:34:32;;;;;;;73.43;51.42;;;18.20;61.80;;;;;;4936316;28;90517;-73
2021/12/13 00:37:03;;;;;;;72.22;50.85;;;18.20;61.90;;;;;;4939198;28;89438;-74
2021/12/13 00:39:53;;;;;;;72.05;50.72;;;18.20;62.00;;;;;;4939470;28;91557;-74
2021/12/13 00:42:22;;;;;;;73.10;51.28;;;18.20;62.20;;;;;;4940687;28;91421;-73
2021/12/13 00:44:52;;;;;;;73.50;51.05;;;18.20;61.90;;;;;;4941585;28;90952;-73
2021/12/13 00:47:31;;;;;;;72.68;51.13;;;18.20;62.00;;;;;;4941096;28;90394;-73
2021/12/13 00:50:25;;;;;;;72.15;50.67;;;18.20;62.00;;;;;;4947265;28;91380;-73
2021/12/13 00:52:53;;;;;;;71.93;50.55;;;18.20;62.00;;;;;;4945722;28;91645;-74
2021/12/13 00:55:24;;;;;;;72.88;51.08;;;18.10;61.90;;;;;;4947325;28;91219;-74
2021/12/13 00:58:12;;;;;;;73.22;51.72;;;18.10;61.90;;;;;;4920414;28;92025;-73
2021/12/13 01:00:59;;;;;;;72.15;50.60;;;18.10;62.00;;;;;;1944110;28;10108921;-72
2021/12/13 01:03:48;;;;;;;74.28;51.08;;;18.10;62.00;;;;;;3562174;28;10091897;-72
2021/12/13 01:06:50;;;;;;;71.82;50.65;;;18.10;62.10;;;;;;4944446;28;90582;-73
2021/12/13 01:09:54;;;;;;;72.20;50.42;;;18.10;62.00;;;;;;4937942;28;89490;-73
2021/12/13 01:12:22;;;;;;;73.00;50.97;;;18.10;62.00;;;;;;4940802;28;92043;-73
2021/12/13 01:15:11;;;;;;;72.03;50.65;;;18.10;62.10;;;;;;4942949;28;93177;-72
2021/12/13 01:18:01;;;;;;;73.25;51.10;;;18.10;62.10;;;;;;4943735;28;90823;-74
2021/12/13 01:20:43;;;;;;;72.80;51.03;;;18.10;62.10;;;;;;4950127;28;90785;-74
2021/12/13 01:23:16;;;;;;;72.05;50.55;;;18.00;62.10;;;;;;4949662;28;90610;-74
2021/12/13 01:26:01;;;;;;;73.32;51.63;;;18.00;62.10;;;;;;4943482;28;91649;-73
2021/12/13 01:28:41;;;;;;;73.20;51.40;;;18.00;62.20;;;;;;4939058;28;91066;-73
2021/12/13 01:31:26;;;;;;;72.60;51.17;;;18.00;62.20;;;;;;4938690;28;90514;-73
2021/12/13 01:33:54;;;;;;;73.82;51.13;;;18.00;62.20;;;;;;4948236;28;90690;-74
2021/12/13 01:36:24;;;;;;;72.28;50.78;;;18.00;62.40;;;;;;4949517;28;93547;-73
2021/12/13 01:39:05;;;;;;;72.53;50.73;;;18.00;62.20;;;;;;4945251;28;91332;-74
2021/12/13 01:41:42;;;;;;;72.57;50.83;;;18.00;62.20;;;;;;4938656;28;91243;-74
2021/12/13 01:44:13;;;;;;;72.18;50.97;;;18.00;62.20;;;;;;4943128;28;89987;-74
2021/12/13 01:46:41;;;;;;;;;;;18.00;62.20;;;;;;4941887;28;90542;-74
2021/12/13 01:49:09;;;;;;;72.18;51.08;;;17.90;62.20;;;;;;4947990;28;90403;-73
2021/12/13 01:51:35;;;;;;;73.65;51.25;;;17.90;62.30;;;;;;4947511;28;89897;-74
2021/12/13 01:54:06;;;;;;;72.47;50.70;;;17.90;62.20;;;;;;4942231;28;90577;-74
2021/12/13 01:56:54;;;;;;;74.28;51.63;;;17.90;62.20;;;;;;4942846;28;91966;-74
2021/12/13 02:02:11;;;;;;;73.18;51.40;;;17.90;62.30;;;;;;4945587;28;90007;-75
2021/12/13 02:04:37;;;;;;;73.05;51.42;;;17.90;62.30;;;;;;4947837;28;92508;-74
2021/12/13 02:07:04;;;;;;;72.63;51.15;;;17.90;62.30;;;;;;4940771;28;90302;-76
2021/12/13 02:09:34;;;;;;;73.13;51.40;;;17.90;62.40;;;;;;4944878;28;89780;-74
2021/12/13 02:12:05;;;;;;;71.82;50.50;;;17.90;62.30;;;;;;4936111;28;91872;-73
2021/12/13 02:14:33;;;;;;;72.72;50.92;;;17.90;62.30;;;;;;4941133;28;91109;-73
2021/12/13 02:17:12;;;;;;;72.70;50.70;;;17.90;62.30;;;;;;4933227;28;90471;-73
2021/12/13 02:19:47;;;;;;;72.30;51.05;;;17.80;62.30;;;;;;4948368;28;90546;-74
2021/12/13 02:22:18;;;;;;;72.88;51.22;;;17.80;62.30;;;;;;4943080;28;93915;-75
2021/12/13 02:24:44;;;;;;;72.07;50.65;;;17.90;62.30;;;;;;4933185;28;90488;-73
2021/12/13 02:27:10;;;;;;;73.40;51.05;;;17.80;62.40;;;;;;4940961;28;92001;-73
2021/12/13 02:29:38;;;;;;;72.50;50.90;;;17.80;62.40;;;;;;4945265;28;91066;-74
2021/12/13 02:32:08;;;;;;;73.95;51.67;;;17.80;62.40;;;;;;4945344;28;90623;-74
2021/12/13 02:34:38;;;;;;;73.80;51.50;;;17.80;62.40;;;;;;4941057;28;91287;-74
2021/12/13 02:37:05;;;;;;;72.80;51.35;;;17.80;62.40;;;;;;4937351;28;90756;-74
2021/12/13 02:39:39;;;;;;;73.03;50.70;;;17.80;62.40;;;;;;4940324;28;90517;-74
2021/12/13 02:42:07;;;;;;;72.13;50.78;;;17.80;62.40;;;;;;4932203;28;91659;-74
2021/12/13 02:44:58;;;;;;;74.00;51.10;;;17.80;62.40;;;;;;4949742;28;92397;-74
2021/12/13 02:47:31;;;;;;;72.05;50.90;;;17.80;62.40;;;;;;4947020;28;89756;-74
2021/12/13 02:49:58;;;;;;;73.10;51.13;;;17.80;62.40;;;;;;4946348;28;90951;-74
2021/12/13 02:52:25;;;;;;;73.25;51.35;;;17.80;62.40;;;;;;4950249;28;91217;-74
2021/12/13 02:54:59;;;;;;;71.90;50.97;;;17.70;62.40;;;;;;4941987;28;95163;-74
2021/12/13 02:57:29;;;;;;;72.78;50.97;;;17.80;62.50;;;;;;4940314;28;93153;-75
2021/12/13 03:00:11;;;;;;;74.03;51.60;;;17.70;62.40;;;;;;4932243;28;90639;-74
2021/12/13 03:02:42;;;;;;;72.10;50.72;;;17.70;62.40;;;;;;4942514;28;90284;-74
2021/12/13 03:05:14;;;;;;;72.95;51.15;;;17.70;62.40;;;;;;4949750;28;93365;-74
2021/12/13 03:07:45;;;;;;;72.38;51.08;;;17.70;62.40;;;;;;4936668;28;90925;-74
2021/12/13 03:10:16;;;;;;;;;;;17.70;62.40;;;;;;4936178;28;91045;-73
2021/12/13 03:12:42;;;;;;;73.15;51.22;;;17.70;62.50;;;;;;4944305;28;90970;-73
2021/12/13 03:15:17;;;;;;;72.00;50.67;;;17.70;62.40;;;;;;4945141;28;93990;-74
2021/12/13 03:17:55;;;;;;;72.65;51.13;;;17.70;62.40;;;;;;4944818;28;89759;-73
2021/12/13 03:20:44;;;;;;;73.03;51.13;;;17.70;62.40;;;;;;4941974;28;91073;-73
2021/12/13 03:23:35;;;;;;;72.25;51.05;;;17.70;62.40;;;;;;4944232;28;90315;-73
2021/12/13 03:26:20;;;;;;;71.53;50.58;;;17.70;62.40;;;;;;4943490;28;91550;-74
2021/12/13 03:29:11;;;;;;;72.07;50.63;;;17.70;62.40;;;;;;4955092;28;90542;-74
2021/12/13 03:31:42;;;;;;;72.60;50.72;;;17.70;62.50;;;;;;4945885;28;89997;-74
2021/12/13 03:34:17;;;;;;;73.05;51.20;;;17.70;62.50;;;;;;4944866;28;90328;-74
2021/12/13 03:36:55;;;;;;;72.47;50.88;;;17.60;62.50;;;;;;4942752;28;92262;-73
2021/12/13 03:39:41;;;;;;;72.43;50.95;;;17.60;62.50;;;;;;4938819;28;90892;-73
2021/12/13 03:42:13;;;;;;;72.70;51.15;;;17.60;62.50;;;;;;4941774;28;89867;-73
2021/12/13 03:44:49;;;;;;;72.28;50.90;;;17.60;62.50;;;;;;4937631;28;90178;-74
2021/12/13 03:47:35;;;;;;;72.32;51.17;;;17.60;62.50;;;;;;4937305;28;92258;-73
2021/12/13 03:50:08;;;;;;;72.78;51.08;;;17.60;62.40;;;;;;4938617;28;91095;-74
2021/12/13 03:52:38;;;;;;;73.15;51.47;;;17.60;62.50;;;;;;4943108;28;92036;-73
2021/12/13 03:55:05;;;;;;;73.03;51.20;;;17.60;62.50;;;;;;4947548;28;90168;-74
2021/12/13 03:57:31;;;;;;;72.28;51.13;;;17.60;62.50;;;;;;4945615;28;92496;-73
2021/12/13 03:59:59;;;;;;;72.20;50.83;;;17.60;62.50;;;;;;4930959;28;91189;-74
2021/12/13 04:02:32;;;;;;;71.90;50.63;;;17.60;62.50;;;;;;4942619;28;89745;-74
2021/12/13 04:05:04;;;;;;;71.57;50.63;;;17.60;62.40;;;;;;4934342;28;88748;-74
2021/12/13 04:07:37;;;;;;;72.70;51.17;;;17.60;62.50;;;;;;4933078;28;90963;-73
2021/12/13 04:10:20;;;;;;;72.93;51.38;;;17.60;62.50;;;;;;4934566;28;95564;-73
2021/12/13 04:12:52;;;;;;;73.82;51.42;;;17.50;62.40;;;;;;4941773;28;91304;-75
2021/12/13 04:15:29;;;;;;;72.15;50.65;;;17.60;62.50;;;;;;4936338;28;89681;-74
2021/12/13 04:18:14;;;;;;;72.80;51.53;;;17.50;62.40;;;;;;4943600;28;93594;-74
2021/12/13 04:20:41;;;;;;;71.95;50.50;;;17.50;62.40;;;;;;4939638;28;90807;-74
2021/12/13 04:23:21;;;;;;;71.93;50.83;;;17.60;62.50;;;;;;4938444;28;90072;-72
2021/12/13 04:25:50;;;;;;;72.60;51.47;;;17.50;62.50;;;;;;4938447;28;91222;-73
2021/12/13 04:28:42;;;;;;;73.15;51.60;;;17.50;62.40;;;;;;4939511;28;91585;-73
2021/12/13 04:31:12;;;;;;;72.78;51.55;;;17.60;62.50;;;;;;4934280;28;90698;-74
2021/12/13 04:33:45;;;;;;;72.18;50.70;;;17.60;62.50;;;;;;4944754;28;90573;-74
2021/12/13 04:36:43;;;;;;;70.93;50.10;;;17.50;62.50;;;;;;4950761;28;90356;-73
2021/12/13 04:39:18;;;;;;;72.22;50.90;;;17.50;62.50;;;;;;4939536;28;93716;-74
2021/12/13 04:42:07;;;;;;;72.22;50.83;;;17.50;62.50;;;;;;4938070;28;93181;-74
2021/12/13 04:44:35;;;;;;;73.45;51.13;;;17.60;62.60;;;;;;4944005;28;93369;-74
2021/12/13 04:47:11;;;;;;;72.35;50.95;;;17.50;62.50;;;;;;4936283;28;90879;-74
2021/12/13 04:49:41;;;;;;;72.53;50.65;;;17.50;62.50;;;;;;4939768;28;90564;-73
2021/12/13 04:52:17;;;;;;;72.68;51.00;;;17.50;62.50;;;;;;4934930;28;90701;-73
2021/12/13 04:54:46;;;;;;;71.93;50.83;;;17.50;62.50;;;;;;4939115;28;90345;-74
2021/12/13 04:57:14;;;;;;;72.90;51.30;;;17.50;62.40;;;;;;4943114;28;89318;-74
2021/12/13 04:59:39;;;;;;;72.47;51.20;;;17.60;62.50;;;;;;4938327;28;96646;-74
2021/12/13 05:02:10;;;;;;;73.00;51.45;;;17.60;62.50;;;;;;4935626;28;90151;-73
2021/12/13 05:04:37;;;;;;;72.63;51.15;;;17.70;62.30;;;;;;4941551;28;91216;-72
2021/12/13 05:07:04;;;;;;;72.03;50.60;;;17.90;62.20;;;;;;4930125;28;90957;-73
2021/12/13 05:09:32;;;;;;;73.28;51.53;;;18.00;61.90;;;;;;4938186;28;93641;-73
2021/12/13 05:12:15;;;;;;;73.40;51.25;;;18.20;61.60;;;;;;4947767;28;92639;-74
2021/12/13 05:14:46;;;;;;;73.78;51.63;;;18.30;61.30;;;;;;4943879;28;91863;-74
2021/12/13 05:17:19;;;;;;;73.63;51.67;;;18.40;60.90;;;;;;4937013;28;91143;-73
2021/12/13 05:19:53;;;;;;;73.35;51.88;;;18.60;60.60;;;;;;4942821;28;92068;-73
2021/12/13 05:22:20;;;;;;;73.10;51.40;;;18.70;60.10;;;;;;4942320;28;90419;-73
2021/12/13 05:25:01;;;;;;;74.45;51.85;;;18.80;59.90;;;;;;4941872;28;90747;-72
2021/12/13 05:27:39;;;;;;;73.18;51.38;;;19.00;59.70;;;;;;4938653;28;89836;-73
2021/12/13 05:30:23;;;;;;;73.32;51.40;;;19.00;59.30;;;;;;4935799;28;91294;-73
2021/12/13 05:32:58;;;;;;;74.28;52.15;;;19.20;59.00;;;;;;4930205;28;92969;-74
2021/12/13 05:35:41;;;;;;;75.47;52.42;;;19.20;58.90;;;;;;4936419;28;91349;-73
2021/12/13 05:38:10;;;;;;;75.70;52.17;;;19.30;58.80;;;;;;4934747;28;91045;-73
2021/12/13 05:40:36;;;;;;;73.25;51.15;;;19.40;58.60;;;;;;4939366;28;91424;-73
2021/12/13 05:43:20;;;;;;;74.38;51.85;;;19.50;58.40;;;;;;4936821;28;91429;-73
2021/12/13 05:46:04;;;;;;;75.55;52.58;;;19.50;58.20;;;;;;4933355;28;93259;-74
2021/12/13 05:48:52;;;;;;;74.72;52.13;;;19.60;58.10;;;;;;4939051;28;89533;-74
2021/12/13 05:51:23;;;;;;;73.70;51.28;;;19.60;58.00;;;;;;4948417;28;89486;-75
2021/12/13 05:54:02;;;;;;;73.97;51.87;;;19.60;57.80;;;;;;4946484;28;89987;-74
2021/12/13 05:56:35;;;;;;;77.60;53.90;;;19.70;57.80;;;;;;4941814;28;91928;-76
2021/12/13 05:59:32;;;;;;;74.03;51.95;;;19.70;57.80;;;;;;4932875;28;91297;-74
2021/12/13 06:02:00;;;;;;;73.70;52.00;;;19.70;57.70;;;;;;4943141;28;91053;-74
2021/12/13 06:04:54;;;;;;;75.50;52.53;;;19.70;57.60;;;;;;4939820;28;91428;-76
2021/12/13 06:07:24;;;;;;;73.03;51.17;;;19.70;57.50;;;;;;4930156;28;89944;-74
2021/12/13 06:10:13;;;;;;;74.80;51.83;;;19.80;57.40;;;;;;4935480;28;92262;-74
2021/12/13 06:12:44;;;;;;;74.43;52.05;;;19.80;57.40;;;;;;4944735;28;90779;-74
2021/12/13 06:15:16;;;;;;;73.97;51.33;;;19.80;57.40;;;;;;4949444;28;90015;-74
2021/12/13 06:18:04;;;;;;;75.22;52.28;;;19.80;57.30;;;;;;4951298;28;91228;-74
2021/12/13 06:21:00;;;;;;;75.20;51.97;;;19.70;57.40;;;;;;4955977;28;89778;-74
2021/12/13 06:23:31;;;;;;;76.45;52.67;;;19.80;57.90;;;;;;4953245;28;96594;-74
2021/12/13 06:26:06;;;;;;;73.82;51.70;;;19.80;57.40;;;;;;4946056;28;91077;-74
2021/12/13 06:28:39;;;;;;;75.13;52.10;;;19.70;57.50;;;;;;4938669;28;90489;-73
2021/12/13 06:31:17;;;;;;;73.90;51.80;;;19.70;57.50;;;;;;4935844;28;90011;-74
2021/12/13 06:33:54;;;;;;;73.47;51.28;;;19.70;57.70;;;;;;4936626;28;90609;-75
2021/12/13 06:36:30;;;;;;;77.50;51.63;;;19.70;57.70;;;;;;4933805;28;91274;-74
2021/12/13 06:38:59;;;;;;;78.32;52.08;;;19.70;58.20;;;;;;4900209;28;95022;-81
2021/12/13 06:41:27;;;;;;;77.15;52.33;;;19.70;58.90;;;;;;4905352;28;89794;-81
2021/12/13 06:44:21;;;;;;;80.75;52.33;;;19.70;59.20;;;;;;4914281;28;93713;-82
2021/12/13 06:46:57;;;;;;;78.00;52.58;;;19.70;59.00;;;;;;4924208;28;91433;-81
2021/12/13 06:49:32;;;;;;;77.53;52.53;;;19.70;58.90;;;;;;4922424;28;92077;-81
2021/12/13 06:52:01;;;;;;;81.18;52.70;;;19.70;58.70;;;;;;4926717;28;90577;-81
2021/12/13 06:54:32;;;;;;;82.78;52.83;;;19.70;58.80;;;;;;4927373;28;90745;-81
2021/12/13 06:57:06;;;;;;;82.25;52.97;;;19.70;58.70;;;;;;4928285;28;90158;-80
2021/12/13 06:59:37;;;;;;;82.55;53.30;;;19.70;58.90;;;;;;4912405;28;91421;-81
2021/12/13 07:02:12;;;;;;;90.35;54.40;;;19.70;59.00;;;;;;4915852;28;91611;-82
2021/12/13 07:04:55;;;;;;;86.25;53.67;;;19.70;59.00;;;;;;4921900;28;90542;-81
2021/12/13 07:07:25;;;;;;;84.80;54.03;;;19.70;59.30;;;;;;4937882;28;95504;-82
2021/12/13 07:09:54;;;;;;;83.20;53.95;;;19.90;59.30;;;;;;4936591;28;91369;-80
2021/12/13 07:12:21;;;;;;;86.50;54.38;;;20.10;58.80;;;;;;4931580;28;90330;-81
2021/12/13 07:14:48;;;;;;;84.95;54.72;;;20.10;58.90;;;;;;4938816;28;92402;-83
2021/12/13 07:17:17;;;;;;;88.30;54.60;;;20.00;59.20;;;;;;4930508;28;90640;-80
2021/12/13 07:19:47;;;;;;;82.40;54.67;;;19.90;59.60;;;;;;4931399;28;91176;-80
2021/12/13 07:22:27;;;;;;;85.57;55.03;;;19.80;59.90;;;;;;4938340;28;91802;-80
2021/12/13 07:25:12;;;;;;;85.00;54.97;;;19.80;60.00;;;;;;4932788;28;95098;-83
2021/12/13 07:27:44;;;;;;;88.82;54.50;;;19.70;60.30;;;;;;4929939;28;93775;-81
2021/12/13 07:30:23;;;;;;;82.85;54.97;;;19.70;60.60;;;;;;4933706;28;90114;-81
2021/12/13 07:32:59;;;;;;;83.55;54.53;;;19.70;60.60;;;;;;4925289;28;89553;-80
2021/12/13 07:35:34;;;;;;;84.15;53.97;;;19.70;60.40;;;;;;4937740;28;90491;-80
2021/12/13 07:38:03;;;;;;;83.68;54.80;;;19.90;60.30;;;;;;4943473;28;91025;-81
2021/12/13 07:40:40;;;;;;;83.57;54.70;;;19.90;59.90;;;;;;4952353;28;93099;-81
2021/12/13 07:43:47;;;;;;;84.60;54.38;;;20.00;59.50;;;;;;4951590;28;94245;-81
2021/12/13 07:46:19;;;;;;;86.72;54.67;;;20.00;59.40;;;;;;4891579;28;91197;-81
2021/12/13 07:48:45;;;;;;;85.60;54.67;;;19.90;59.00;;;;;;4937961;28;94751;-81
2021/12/13 07:51:22;;;;;;;84.95;55.40;;;20.00;58.90;;;;;;4944820;28;90506;-81
2021/12/13 07:53:57;;;;;;;82.03;54.75;;;20.00;58.90;;;;;;4948501;28;90098;-81
2021/12/13 07:56:38;;;;;;;83.13;54.50;;;20.10;58.70;;;;;;4952918;28;90659;-81
2021/12/13 07:59:27;;;;;;;81.80;53.83;;;20.10;58.40;;;;;;4947624;28;89217;-80
2021/12/13 08:02:02;;;;;;;82.85;54.15;;;20.10;58.20;;;;;;4933577;28;91590;-83
2021/12/13 08:04:44;;;;;;;81.97;54.78;;;20.20;59.00;;;;;;4945419;28;90877;-84
2021/12/13 08:07:27;;;;;;;82.30;54.17;;;20.20;58.40;;;;;;4943155;28;91633;-84
2021/12/13 08:09:58;;;;;;;81.55;53.97;;;20.30;58.40;;;;;;4946229;28;91948;-81
2021/12/13 08:12:28;;;;;;;;;;;20.30;58.60;;;;;;4949248;28;89926;-81
2021/12/13 08:15:08;;;;;;;84.28;54.42;;;20.30;58.50;;;;;;4952871;28;90474;-80
2021/12/13 08:17:51;;;;;;;83.97;53.92;;;20.30;58.60;;;;;;4946871;28;90417;-80
2021/12/13 08:20:26;;;;;;;82.22;54.10;;;20.30;58.60;;;;;;4948831;28;90278;-81
2021/12/13 08:22:54;;;;;;;83.95;54.22;;;20.40;58.50;;;;;;4951762;28;90410;-81
2021/12/13 08:25:27;;;;;;;83.00;53.63;;;20.40;58.60;;;;;;4938803;28;89354;-81
2021/12/13 08:28:02;;;;;;;82.60;53.83;;;20.50;58.60;;;;;;4942132;28;90981;-80
2021/12/13 08:30:30;;;;;;;80.38;53.78;;;20.50;58.60;;;;;;4937113;28;90259;-80
2021/12/13 08:33:24;;;;;;;81.57;53.70;;;20.50;58.60;;;;;;4938883;28;90512;-80
2021/12/13 08:35:56;;;;;;;81.13;53.85;;;20.50;58.60;;;;;;4941993;28;90406;-81
2021/12/13 08:38:43;;;;;;;81.38;53.92;;;20.40;58.70;;;;;;4947612;28;90796;-80
2021/12/13 08:41:14;;;;;;;82.18;53.67;;;20.40;58.80;;;;;;4943476;28;91517;-80
2021/12/13 08:43:46;;;;;;;82.13;54.10;;;20.50;58.90;;;;;;4941576;28;90170;-81
2021/12/13 08:46:24;;;;;;;81.20;53.65;;;20.50;59.00;;;;;;4940866;28;90717;-80
2021/12/13 08:48:51;;;;;;;81.65;53.75;;;20.50;58.90;;;;;;4944170;28;91326;-80
2021/12/13 08:51:23;;;;;;;81.07;54.03;;;20.60;58.30;;;;;;4945550;28;91294;-80
2021/12/13 08:54:10;;;;;;;81.63;53.95;;;20.50;58.30;;;;;;4947357;28;94904;-80
2021/12/13 08:56:48;;;;;;;81.72;53.92;;;20.50;58.40;;;;;;4946276;28;91509;-78
2021/12/13 08:59:25;;;;;;;81.70;54.03;;;20.60;58.50;;;;;;4938686;28;91605;-79
2021/12/13 09:02:11;;;;;;;81.93;53.97;;;20.60;58.10;;;;;;4938980;28;92302;-80
2021/12/13 09:04:43;;;;;;;82.45;53.78;;;20.50;57.80;;;;;;4942177;28;90881;-80
2021/12/13 09:07:12;;;;;;;81.20;53.63;;;20.50;57.50;;;;;;4948549;28;90136;-80
2021/12/13 09:09:44;;;;;;;80.97;54.25;;;20.60;57.40;;;;;;4945474;28;91052;-80
2021/12/13 09:12:11;;;;;;;80.20;53.92;;;20.50;56.70;;;;;;4946741;28;90316;-80
2021/12/13 09:14:45;;;;;;;81.60;53.92;;;20.50;56.30;;;;;;4944486;28;89968;-80
2021/12/13 09:17:24;;;;;;;84.07;54.72;;;20.50;56.10;;;;;;4942486;28;88056;-80
2021/12/13 09:19:57;;;;;;;84.00;54.30;;;20.40;55.60;;;;;;4947735;28;91127;-80
2021/12/13 09:22:32;;;;;;;81.43;54.30;;;20.50;55.40;;;;;;4954876;28;92596;-82
2021/12/13 09:25:00;;;;;;;82.57;54.38;;;20.50;55.50;;;;;;4952046;28;92810;-79
2021/12/13 09:27:41;;;;;;;81.45;54.38;;;20.50;55.30;;;;;;4944981;28;90702;-80
2021/12/13 09:30:16;;;;;;;82.68;54.13;;;20.50;55.50;;;;;;4946374;28;90228;-80
2021/12/13 09:32:51;;;;;;;83.32;54.35;;;20.50;55.30;;;;;;4938935;28;91947;-82
2021/12/13 09:35:32;;;;;;;81.78;54.10;;;20.50;55.40;;;;;;4945522;28;90129;-84
2021/12/13 09:38:20;;;;;;;81.60;54.40;;;20.50;55.50;;;;;;4952693;28;90252;-84
2021/12/13 09:40:53;;;;;;;85.88;53.88;;;20.50;55.70;;;;;;4953161;28;91013;-83
2021/12/13 09:43:22;;;;;;;79.82;53.40;;;20.50;55.90;;;;;;4950693;28;91697;-83
2021/12/13 09:45:58;;;;;;;82.18;53.95;;;20.50;56.20;;;;;;4946451;28;90465;-83
2021/12/13 09:48:38;;;;;;;80.85;53.85;;;20.50;56.20;;;;;;4949274;28;90266;-84
2021/12/13 09:51:09;;;;;;;81.25;53.88;;;20.50;56.30;;;;;;4955437;28;93195;-84
2021/12/13 09:53:38;;;;;;;81.75;53.75;;;20.50;56.20;;;;;;4950320;28;91272;-84
2021/12/13 09:56:09;;;;;;;80.40;53.50;;;20.50;56.10;;;;;;4957674;28;91413;-83
2021/12/13 09:58:44;;;;;;;80.32;53.60;;;20.50;56.40;;;;;;4959151;28;90522;-83
2021/12/13 10:01:26;;;;;;;82.93;53.88;;;20.50;56.50;;;;;;4953741;28;91103;-83
2021/12/13 10:04:03;;;;;;;81.82;53.58;;;20.50;56.50;;;;;;4960461;28;91744;-82
2021/12/13 10:06:45;;;;;;;80.38;53.28;;;20.50;56.70;;;;;;4961822;28;90176;-80
2021/12/13 10:09:16;;;;;;;80.05;53.30;;;20.50;56.70;;;;;;4952269;28;89824;-81
2021/12/13 10:11:53;;;;;;;80.25;53.40;;;20.50;56.60;;;;;;4941955;28;91756;-82
2021/12/13 10:14:27;;;;;;;82.07;53.70;;;20.60;56.70;;;;;;4952366;28;89982;-83
2021/12/13 10:16:55;;;;;;;80.70;53.47;;;20.60;56.90;;;;;;4947331;28;91163;-81
2021/12/13 10:19:33;;;;;;;85.65;53.28;;;20.60;57.00;;;;;;4950355;28;89885;-81
2021/12/13 10:21:59;;;;;;;79.95;53.22;;;20.60;57.10;;;;;;4943296;28;91713;-82
2021/12/13 10:24:29;;;;;;;83.50;53.67;;;20.60;57.10;;;;;;4954116;28;91724;-81
2021/12/13 10:26:58;;;;;;;80.35;53.35;;;20.70;57.10;;;;;;4953578;28;94858;-81
2021/12/13 10:29:26;;;;;;;80.65;53.05;;;20.70;57.20;;;;;;4948587;28;90512;-80
2021/12/13 10:32:13;;;;;;;80.25;52.88;;;20.70;57.30;;;;;;4951488;28;95222;-80
2021/12/13 10:34:45;;;;;;;83.00;53.53;;;20.70;57.20;;;;;;4947552;28;89952;-79
2021/12/13 10:37:24;;;;;;;81.00;53.38;;;20.70;57.00;;;;;;4957218;28;89467;-79
2021/12/13 10:39:54;;;;;;;81.38;52.88;;;20.70;57.00;;;;;;4953784;28;89809;-80
2021/12/13 10:42:27;;;;;;;80.82;53.25;;;20.70;57.10;;;;;;4953245;28;92486;-81
2021/12/13 10:44:53;;;;;;;81.22;53.17;;;20.80;57.20;;;;;;4952716;28;92963;-83
2021/12/13 10:47:39;;;;;;;80.88;53.40;;;20.80;57.20;;;;;;4950847;28;89548;-81
2021/12/13 10:50:12;;;;;;;84.38;53.47;;;20.80;57.30;;;;;;4950330;28;95107;-81
2021/12/13 10:52:43;;;;;;;80.47;53.25;;;20.80;56.90;;;;;;4955687;28;90557;-81
2021/12/13 10:55:13;;;;;;;85.88;53.58;;;20.80;57.00;;;;;;4977604;28;90136;-81
2021/12/13 10:57:44;;;;;;;80.97;53.40;;;20.80;57.00;;;;;;4949838;28;90218;-81
2021/12/13 11:00:20;;;;;;;80.25;52.88;;;20.80;57.20;;;;;;4950428;28;90509;-81
2021/12/13 11:02:50;;;;;;;82.53;53.17;;;20.90;57.20;;;;;;4946516;28;90711;-80
2021/12/13 11:05:21;;;;;;;80.82;53.28;;;20.90;57.50;;;;;;4951248;28;92014;-81
2021/12/13 11:07:48;;;;;;;89.32;53.78;;;20.90;57.40;;;;;;4948837;28;90558;-81
2021/12/13 11:10:22;;;;;;;84.40;53.65;;;20.90;57.60;;;;;;4953014;28;90002;-81
2021/12/13 11:12:54;;;;;;;83.30;53.75;;;20.90;57.40;;;;;;4953724;28;90350;-80
2021/12/13 11:15:26;;;;;;;81.90;53.28;;;21.00;57.20;;;;;;4952258;28;92497;-80
2021/12/13 11:17:54;;;;;;;83.18;53.63;;;21.00;56.90;;;;;;4953279;28;89505;-82
2021/12/13 11:20:26;;;;;;;81.75;53.40;;;21.00;57.00;;;;;;4952957;28;91557;-82
2021/12/13 11:22:53;;;;;;;82.75;53.95;;;21.00;56.80;;;;;;4955049;28;95313;-82
2021/12/13 11:25:26;;;;;;;82.28;54.33;;;21.00;56.50;;;;;;4954992;28;89333;-82
2021/12/13 11:27:52;;;;;;;82.10;53.85;;;21.00;55.80;;;;;;4950424;28;89909;-82
2021/12/13 11:30:23;;;;;;;84.43;53.45;;;21.00;55.30;;;;;;4949955;28;89964;-81
2021/12/13 11:32:57;;;;;;;81.23;53.57;;;21.00;55.20;;;;;;4950744;28;93872;-80
2021/12/13 11:36:07;;;;;;;83.45;53.75;;;20.90;55.20;;;;;;4953185;28;92928;-81
2021/12/13 11:38:51;;;;;;;82.85;54.25;;;20.90;55.30;;;;;;4950432;28;90789;-82
2021/12/13 11:41:20;;;;;;;83.05;53.47;;;20.80;55.40;;;;;;4950455;28;89757;-82
2021/12/13 11:44:12;;;;;;;81.40;53.90;;;20.90;55.00;;;;;;4951374;28;89882;-82
2021/12/13 11:47:16;;;;;;;83.38;54.00;;;20.90;55.00;;;;;;4954133;28;89749;-81
2021/12/13 11:50:15;;;;;;;87.53;54.63;;;20.80;54.80;;;;;;4937551;28;89718;-81
2021/12/13 11:53:18;;;;;;;84.85;55.30;;;20.80;55.10;;;;;;4937898;28;91210;-81
2021/12/13 11:56:03;;;;;;;87.43;55.08;;;20.80;55.20;;;;;;4947653;28;89987;-82
2021/12/13 11:59:07;;;;;;;89.05;54.80;;;20.80;55.50;;;;;;4936593;28;90522;-81
2021/12/13 12:02:27;;;;;;;85.53;55.22;;;20.80;55.60;;;;;;4935700;28;92236;-81
2021/12/13 12:05:24;;;;;;;87.78;55.28;;;20.80;55.50;;;;;;4917773;28;95972;-82
2021/12/13 12:08:29;;;;;;;83.60;55.15;;;20.80;55.70;;;;;;4934604;28;96582;-83
2021/12/13 12:11:17;;;;;;;88.68;55.40;;;20.80;55.80;;;;;;4945657;28;91021;-83
2021/12/13 12:14:06;;;;;;;83.60;54.70;;;20.70;56.00;;;;;;4937418;28;90620;-84
2021/12/13 12:16:40;;;;;;;85.75;55.25;;;20.70;55.80;;;;;;4942532;28;89578;-84
2021/12/13 12:19:14;;;;;;;84.93;54.80;;;20.70;55.80;;;;;;4948269;28;89749;-83
2021/12/13 12:21:59;;;;;;;86.32;55.17;;;20.70;55.80;;;;;;4941211;28;92564;-84
2021/12/13 12:24:33;;;;;;;85.70;55.25;;;20.70;55.90;;;;;;4949603;28;91694;-84
2021/12/13 12:27:16;;;;;;;85.53;54.58;;;20.70;55.60;;;;;;4945555;28;90235;-84
2021/12/13 12:29:47;;;;;;;83.25;55.17;;;20.80;55.80;;;;;;4930563;28;91248;-85
2021/12/13 12:32:16;;;;;;;83.82;55.08;;;20.80;55.80;;;;;;4946790;28;92376;-84
2021/12/13 12:35:00;;;;;;;86.50;54.65;;;20.70;55.80;;;;;;4935667;28;90217;-84
2021/12/13 12:37:49;;;;;;;84.88;54.67;;;20.80;55.90;;;;;;4937480;28;91092;-84
2021/12/13 12:40:37;;;;;;;84.82;54.55;;;20.70;56.00;;;;;;4933556;28;91764;-82
2021/12/13 12:43:09;;;;;;;82.82;54.45;;;20.70;56.50;;;;;;4937781;28;91172;-83
2021/12/13 12:45:49;;;;;;;83.72;54.78;;;20.70;56.40;;;;;;4944694;28;89897;-83
2021/12/13 12:48:20;;;;;;;84.78;54.60;;;20.70;56.30;;;;;;4935431;28;89154;-84
2021/12/13 12:50:53;;;;;;;83.28;54.97;;;20.70;56.50;;;;;;4929050;28;91158;-82
2021/12/13 12:53:42;;;;;;;83.03;54.22;;;20.70;56.30;;;;;;4939475;28;92859;-83
2021/12/13 12:56:16;;;;;;;83.55;54.55;;;20.70;56.30;;;;;;4925641;28;90786;-83
2021/12/13 12:59:09;;;;;;;84.40;55.10;;;20.70;56.30;;;;;;4925817;28;90059;-82
2021/12/13 13:01:39;;;;;;;85.53;54.97;;;20.70;56.30;;;;;;4928132;28;91577;-83
2021/12/13 13:04:30;;;;;;;83.85;54.75;;;20.70;56.30;;;;;;4940377;28;90251;-83
2021/12/13 13:07:12;;;;;;;82.80;54.85;;;20.70;56.30;;;;;;4931704;28;91216;-82
2021/12/13 13:09:49;;;;;;;83.50;54.72;;;20.70;56.60;;;;;;4932626;28;90239;-81
2021/12/13 13:12:30;;;;;;;83.07;54.22;;;20.70;56.50;;;;;;4952988;28;91714;-83
2021/12/13 13:15:00;;;;;;;81.90;54.17;;;20.70;56.30;;;;;;4952200;28;90577;-82
2021/12/13 13:17:33;;;;;;;85.60;54.03;;;20.70;56.20;;;;;;4943985;28;93158;-82